createdAt,value
2023-05-13T00:00:06.135Z,10.96
2023-05-13T00:02:54.352Z,10.97
2023-05-13T00:05:22.610Z,10.99
2023-05-13T00:07:51.385Z,11.00
2023-05-13T00:10:20.964Z,10.99
2023-05-13T00:12:49.475Z,10.95
2023-05-13T00:15:17.615Z,10.92
2023-05-13T00:17:46.457Z,10.88
2023-05-13T00:20:14.627Z,10.85
2023-05-13T00:22:43.012Z,10.81
2023-05-13T00:25:11.770Z,10.79
2023-05-13T00:27:40.715Z,10.78
2023-05-13T00:30:10.791Z,10.79
2023-05-13T00:32:39.115Z,10.80
2023-05-13T00:35:10.506Z,10.80
2023-05-13T00:37:38.986Z,10.78
2023-05-13T00:40:17.718Z,10.77
2023-05-13T00:42:45.957Z,10.77
2023-05-13T00:45:14.384Z,10.74
2023-05-13T00:47:44.482Z,10.67
2023-05-13T00:50:14.395Z,10.63
2023-05-13T00:52:43.342Z,10.62
2023-05-13T00:55:12.167Z,10.61
2023-05-13T00:57:40.604Z,10.58
2023-05-13T01:00:10.642Z,10.51
2023-05-13T01:02:55.097Z,10.47
2023-05-13T01:05:45.820Z,10.45
2023-05-13T01:08:20.539Z,10.32
2023-05-13T01:10:53.444Z,10.21
2023-05-13T01:13:26.535Z,10.22
2023-05-13T01:16:01.692Z,10.24
2023-05-13T01:18:41.252Z,10.28
2023-05-13T01:21:10.104Z,10.32
2023-05-13T01:23:38.515Z,10.32
2023-05-13T01:26:07.072Z,10.29
2023-05-13T01:28:36.490Z,10.29
2023-05-13T01:31:06.722Z,10.29
2023-05-13T01:33:34.886Z,10.28
2023-05-13T01:36:03.724Z,10.26
2023-05-13T01:38:34.312Z,10.26
2023-05-13T01:41:02.819Z,10.26
2023-05-13T01:43:33.990Z,10.27
2023-05-13T01:46:02.367Z,10.27
2023-05-13T01:48:30.820Z,10.26
2023-05-13T01:50:59.417Z,10.22
2023-05-13T01:53:28.085Z,10.18
2023-05-13T01:55:56.826Z,10.16
2023-05-13T01:58:25.078Z,10.16
2023-05-13T02:00:53.382Z,10.15
2023-05-13T02:03:21.822Z,10.16
2023-05-13T02:05:51.084Z,10.16
2023-05-13T02:08:19.472Z,10.18
2023-05-13T02:10:58.667Z,10.20
2023-05-13T02:13:27.606Z,10.20
2023-05-13T02:15:56.806Z,10.20
2023-05-13T02:18:25.262Z,10.19
2023-05-13T02:20:53.385Z,10.15
2023-05-13T02:23:21.698Z,10.14
2023-05-13T02:25:50.200Z,10.14
2023-05-13T02:28:19.224Z,10.14
2023-05-13T02:30:48.102Z,10.15
2023-05-13T02:33:16.478Z,10.12
2023-05-13T02:35:44.871Z,10.16
2023-05-13T02:38:13.594Z,10.15
2023-05-13T02:40:42.409Z,10.13
2023-05-13T02:43:10.936Z,10.14
2023-05-13T02:45:48.274Z,10.16
2023-05-13T02:48:17.539Z,10.19
2023-05-13T02:50:46.028Z,10.21
2023-05-13T02:53:14.410Z,10.25
2023-05-13T02:55:46.910Z,10.26
2023-05-13T02:58:15.563Z,10.27
2023-05-13T03:00:43.857Z,10.27
2023-05-13T03:03:12.301Z,10.26
2023-05-13T03:05:40.865Z,10.22
2023-05-13T03:08:09.216Z,10.22
2023-05-13T03:10:37.510Z,10.24
2023-05-13T03:13:05.779Z,10.26
2023-05-13T03:15:33.958Z,10.28
2023-05-13T03:18:02.274Z,10.30
2023-05-13T03:20:31.309Z,10.34
2023-05-13T03:22:59.941Z,10.37
2023-05-13T03:25:28.480Z,10.39
2023-05-13T03:27:59.252Z,10.42
2023-05-13T03:30:30.711Z,10.44
2023-05-13T03:33:11.944Z,10.45
2023-05-13T03:35:40.379Z,10.45
2023-05-13T03:38:10.162Z,10.47
2023-05-13T03:40:41.872Z,10.51
2023-05-13T03:43:10.473Z,10.54
2023-05-13T03:45:40.052Z,10.56
2023-05-13T03:48:11.101Z,10.58
2023-05-13T03:50:41.128Z,10.60
2023-05-13T03:53:11.436Z,10.62
2023-05-13T03:55:40.149Z,10.67
2023-05-13T03:58:16.108Z,10.72
2023-05-13T04:00:46.985Z,10.78
2023-05-13T04:03:17.374Z,10.85
2023-05-13T04:05:46.992Z,10.90
2023-05-13T04:08:16.008Z,10.94
2023-05-13T04:10:45.000Z,11.01
2023-05-13T04:13:13.272Z,11.08
2023-05-13T04:15:41.413Z,11.14
2023-05-13T04:18:10.111Z,11.19
2023-05-13T04:20:39.878Z,11.20
2023-05-13T04:23:08.356Z,11.21
2023-05-13T04:25:39.313Z,11.18
2023-05-13T04:28:07.974Z,11.18
2023-05-13T04:30:41.266Z,11.22
2023-05-13T04:33:09.947Z,11.29
2023-05-13T04:35:39.167Z,11.40
2023-05-13T04:38:09.626Z,11.50
2023-05-13T04:40:37.902Z,11.54
2023-05-13T04:43:10.218Z,11.56
2023-05-13T04:45:47.718Z,11.54
2023-05-13T04:48:16.653Z,11.51
2023-05-13T04:50:48.737Z,11.48
2023-05-13T04:53:18.114Z,11.48
2023-05-13T04:55:48.946Z,11.53
2023-05-13T04:58:17.457Z,11.61
2023-05-13T05:00:48.632Z,11.69
2023-05-13T05:03:16.883Z,11.73
2023-05-13T05:05:45.153Z,11.80
2023-05-13T05:08:15.201Z,11.90
2023-05-13T05:10:43.863Z,11.93
2023-05-13T05:13:13.289Z,11.85
2023-05-13T05:15:42.381Z,11.78
2023-05-13T05:18:11.511Z,11.77
2023-05-13T05:20:41.206Z,11.78
2023-05-13T05:23:17.478Z,11.84
2023-05-13T05:25:46.073Z,11.88
2023-05-13T05:28:14.837Z,11.91
2023-05-13T05:30:45.049Z,11.97
2023-05-13T05:33:22.178Z,12.00
2023-05-13T05:35:51.458Z,12.02
2023-05-13T05:38:24.163Z,12.09
2023-05-13T05:40:53.235Z,12.09
2023-05-13T05:43:21.874Z,12.16
2023-05-13T05:45:53.502Z,12.24
2023-05-13T05:48:22.683Z,12.33
2023-05-13T05:50:50.974Z,12.41
2023-05-13T05:53:27.192Z,12.45
2023-05-13T05:55:57.057Z,12.51
2023-05-13T05:58:27.158Z,12.56
2023-05-13T06:00:57.181Z,12.59
2023-05-13T06:03:25.716Z,12.58
2023-05-13T06:05:54.890Z,12.52
2023-05-13T06:08:30.041Z,12.56
2023-05-13T06:10:59.272Z,12.66
2023-05-13T06:13:28.094Z,12.77
2023-05-13T06:15:56.993Z,12.87
2023-05-13T06:18:26.328Z,13.00
2023-05-13T06:20:55.636Z,13.23
2023-05-13T06:23:24.325Z,13.36
2023-05-13T06:25:53.668Z,13.39
2023-05-13T06:28:22.135Z,13.47
2023-05-13T06:30:53.923Z,13.57
2023-05-13T06:33:22.610Z,13.59
2023-05-13T06:35:51.156Z,13.62
2023-05-13T06:38:22.407Z,13.69
2023-05-13T06:40:55.200Z,13.78
2023-05-13T06:43:29.409Z,13.85
2023-05-13T06:46:01.182Z,13.90
2023-05-13T06:48:30.174Z,13.99
2023-05-13T06:50:58.768Z,14.10
2023-05-13T06:53:27.040Z,14.22
2023-05-13T06:55:55.218Z,14.31
2023-05-13T06:58:23.633Z,14.35
2023-05-13T07:00:52.076Z,14.41
2023-05-13T07:03:20.786Z,14.46
2023-05-13T07:05:49.581Z,14.52
2023-05-13T07:08:19.136Z,14.61
2023-05-13T07:10:47.364Z,14.68
2023-05-13T07:13:15.547Z,14.79
2023-05-13T07:15:43.942Z,14.83
2023-05-13T07:18:12.037Z,14.84
2023-05-13T07:20:40.183Z,14.90
2023-05-13T07:23:08.469Z,15.03
2023-05-13T07:25:36.787Z,15.16
2023-05-13T07:28:05.952Z,15.31
2023-05-13T07:30:34.242Z,15.44
2023-05-13T07:33:02.593Z,15.62
2023-05-13T07:35:31.078Z,15.80
2023-05-13T07:37:59.352Z,15.95
2023-05-13T07:40:27.691Z,16.07
2023-05-13T07:42:55.970Z,16.16
2023-05-13T07:45:24.453Z,16.33
2023-05-13T07:47:53.168Z,16.50
2023-05-13T07:50:21.428Z,16.65
2023-05-13T07:52:51.883Z,16.85
2023-05-13T07:55:21.764Z,17.17
2023-05-13T07:57:50.466Z,17.50
2023-05-13T08:00:19.047Z,17.69
2023-05-13T08:02:47.779Z,17.85
2023-05-13T08:05:17.055Z,17.94
2023-05-13T08:07:45.176Z,17.99
2023-05-13T08:10:13.317Z,18.11
2023-05-13T08:12:41.622Z,18.25
2023-05-13T08:15:12.116Z,18.38
2023-05-13T08:17:40.170Z,18.53
2023-05-13T08:20:08.954Z,18.61
2023-05-13T08:22:37.431Z,18.73
2023-05-13T08:25:06.073Z,18.76
2023-05-13T08:27:35.158Z,18.70
2023-05-13T08:30:05.205Z,18.75
2023-05-13T08:32:33.698Z,18.77
2023-05-13T08:35:01.758Z,18.81
2023-05-13T08:37:30.239Z,18.89
2023-05-13T08:40:01.574Z,18.91
2023-05-13T08:42:33.385Z,18.81
2023-05-13T08:45:07.744Z,18.69
2023-05-13T08:47:58.497Z,18.65
2023-05-13T08:50:30.676Z,18.61
2023-05-13T08:53:00.566Z,18.53
2023-05-13T08:55:29.184Z,18.37
2023-05-13T08:57:57.656Z,18.26
2023-05-13T09:00:26.028Z,18.19
2023-05-13T09:02:54.331Z,18.18
2023-05-13T09:05:23.360Z,18.23
2023-05-13T09:07:52.637Z,18.32
2023-05-13T09:10:21.480Z,18.41
2023-05-13T09:12:53.696Z,18.48
2023-05-13T09:15:24.235Z,18.47
2023-05-13T09:18:03.432Z,18.36
2023-05-13T09:20:32.995Z,18.33
2023-05-13T09:23:10.909Z,18.30
2023-05-13T09:25:40.439Z,18.28
2023-05-13T09:28:09.051Z,18.23
2023-05-13T09:30:40.675Z,18.22
2023-05-13T09:33:17.541Z,18.28
2023-05-13T09:35:53.066Z,18.34
2023-05-13T09:38:26.950Z,18.40
2023-05-13T09:40:57.130Z,18.45
2023-05-13T09:43:32.415Z,18.52
2023-05-13T09:46:02.446Z,18.57
2023-05-13T09:48:34.338Z,18.59
2023-05-13T09:51:02.574Z,18.54
2023-05-13T09:53:31.719Z,18.49
2023-05-13T09:56:01.865Z,18.47
2023-05-13T09:58:31.404Z,18.50
2023-05-13T10:01:00.773Z,18.55
2023-05-13T10:03:29.753Z,18.62
2023-05-13T10:06:02.224Z,18.67
2023-05-13T10:08:32.022Z,18.72
2023-05-13T10:11:00.471Z,18.73
2023-05-13T10:13:31.934Z,18.70
2023-05-13T10:16:00.715Z,18.76
2023-05-13T10:18:29.458Z,18.85
2023-05-13T10:20:58.446Z,18.92
2023-05-13T10:23:28.442Z,18.98
2023-05-13T10:26:01.796Z,19.08
2023-05-13T10:28:31.010Z,19.12
2023-05-13T10:30:59.452Z,19.13
2023-05-13T10:33:31.249Z,19.17
2023-05-13T10:36:30.756Z,19.21
2023-05-13T10:39:17.920Z,19.26
2023-05-13T10:42:11.150Z,19.33
2023-05-13T10:44:39.422Z,19.45
2023-05-13T10:47:11.357Z,19.59
2023-05-13T10:49:40.579Z,19.77
2023-05-13T10:52:14.302Z,19.99
2023-05-13T10:54:42.501Z,20.29
2023-05-13T10:57:10.685Z,20.65
2023-05-13T11:00:16.136Z,20.96
2023-05-13T11:02:45.076Z,21.35
2023-05-13T11:05:21.273Z,21.77
2023-05-13T11:07:57.576Z,22.16
2023-05-13T11:10:32.648Z,22.61
2023-05-13T11:13:16.450Z,22.99
2023-05-13T11:15:55.649Z,23.32
2023-05-13T11:18:31.421Z,23.75
2023-05-13T11:21:05.574Z,24.28
2023-05-13T11:23:50.275Z,24.87
2023-05-13T11:26:21.444Z,25.29
2023-05-13T11:29:01.694Z,25.62
2023-05-13T11:31:53.365Z,25.90
2023-05-13T11:34:21.780Z,26.35
2023-05-13T11:36:52.082Z,26.71
2023-05-13T11:39:22.476Z,27.11
2023-05-13T11:41:51.784Z,27.57
2023-05-13T11:44:22.288Z,27.99
2023-05-13T11:46:51.481Z,28.10
2023-05-13T11:49:49.543Z,28.08
2023-05-13T11:52:19.724Z,27.99
2023-05-13T11:54:54.255Z,27.68
2023-05-13T11:57:27.659Z,27.35
2023-05-13T12:00:09.176Z,27.35
2023-05-13T12:02:40.517Z,27.25
2023-05-13T12:05:11.807Z,27.14
2023-05-13T12:07:40.143Z,26.69
2023-05-13T12:10:08.718Z,26.55
2023-05-13T12:12:43.304Z,26.48
2023-05-13T12:15:17.369Z,26.46
2023-05-13T12:17:47.068Z,26.31
2023-05-13T12:20:23.461Z,26.18
2023-05-13T12:22:54.532Z,25.97
2023-05-13T12:25:36.206Z,25.69
2023-05-13T12:28:20.046Z,25.35
2023-05-13T12:31:08.074Z,24.97
2023-05-13T12:33:44.014Z,24.61
2023-05-13T12:36:26.200Z,24.52
2023-05-13T12:39:05.465Z,24.50
2023-05-13T12:41:41.458Z,24.54
2023-05-13T12:44:16.326Z,24.49
2023-05-13T12:46:53.001Z,24.49
2023-05-13T12:49:21.204Z,24.42
2023-05-13T12:51:50.173Z,24.28
2023-05-13T12:54:18.975Z,24.18
2023-05-13T12:56:48.719Z,24.16
2023-05-13T12:59:19.262Z,24.06
2023-05-13T13:01:49.993Z,23.98
2023-05-13T13:04:19.295Z,23.87
2023-05-13T13:06:48.012Z,23.82
2023-05-13T13:09:16.162Z,23.81
2023-05-13T13:11:44.454Z,23.77
2023-05-13T13:14:12.836Z,23.69
2023-05-13T13:16:41.091Z,23.63
2023-05-13T13:19:09.932Z,23.61
2023-05-13T13:21:38.186Z,23.64
2023-05-13T13:24:06.901Z,23.67
2023-05-13T13:26:35.266Z,23.67
2023-05-13T13:29:03.771Z,23.69
2023-05-13T13:31:32.067Z,23.64
2023-05-13T13:34:04.485Z,23.54
2023-05-13T13:36:33.221Z,23.45
2023-05-13T13:39:01.695Z,23.39
2023-05-13T13:41:29.884Z,23.31
2023-05-13T13:43:58.252Z,23.13
2023-05-13T13:46:26.476Z,23.03
2023-05-13T13:48:54.818Z,22.87
2023-05-13T13:51:23.102Z,22.80
2023-05-13T13:53:51.276Z,22.71
2023-05-13T13:56:20.410Z,22.64
2023-05-13T13:58:48.660Z,22.53
2023-05-13T14:01:17.040Z,22.41
2023-05-13T14:03:45.378Z,22.24
2023-05-13T14:06:14.121Z,22.10
2023-05-13T14:08:42.848Z,21.99
2023-05-13T14:11:11.004Z,21.89
2023-05-13T14:13:39.174Z,21.83
2023-05-13T14:16:07.920Z,21.77
2023-05-13T14:18:36.168Z,21.72
2023-05-13T14:21:04.836Z,21.64
2023-05-13T14:23:33.124Z,21.57
2023-05-13T14:26:01.412Z,21.52
2023-05-13T14:28:29.998Z,21.47
2023-05-13T14:30:58.377Z,21.45
2023-05-13T14:33:26.614Z,21.50
2023-05-13T14:35:55.665Z,21.61
2023-05-13T14:38:23.832Z,21.76
2023-05-13T14:40:52.020Z,21.86
2023-05-13T14:43:20.504Z,22.06
2023-05-13T14:45:48.599Z,22.28
2023-05-13T14:48:17.213Z,22.50
2023-05-13T14:50:46.721Z,22.66
2023-05-13T14:53:14.960Z,22.80
2023-05-13T14:55:43.555Z,22.88
2023-05-13T14:58:12.956Z,22.99
2023-05-13T15:00:41.872Z,23.04
2023-05-13T15:03:10.363Z,22.99
2023-05-13T15:05:41.783Z,23.02
2023-05-13T15:08:12.328Z,23.04
2023-05-13T15:10:40.913Z,23.10
2023-05-13T15:13:09.453Z,23.15
2023-05-13T15:15:37.791Z,23.06
2023-05-13T15:18:06.698Z,22.98
2023-05-13T15:20:34.875Z,22.80
2023-05-13T15:23:03.054Z,22.66
2023-05-13T15:25:31.241Z,22.54
2023-05-13T15:27:59.507Z,22.44
2023-05-13T15:30:28.919Z,22.39
2023-05-13T15:32:57.428Z,22.39
2023-05-13T15:35:26.055Z,22.47
2023-05-13T15:37:54.845Z,22.54
2023-05-13T15:40:24.214Z,22.59
2023-05-13T15:42:52.352Z,22.74
2023-05-13T15:45:20.651Z,22.94
2023-05-13T15:47:49.145Z,23.13
2023-05-13T15:50:19.040Z,23.25
2023-05-13T15:52:47.546Z,23.39
2023-05-13T15:55:16.242Z,23.46
2023-05-13T15:57:44.765Z,23.44
2023-05-13T16:00:14.012Z,23.44
2023-05-13T16:02:44.059Z,23.52
2023-05-13T16:05:15.443Z,23.59
2023-05-13T16:07:44.508Z,23.54
2023-05-13T16:10:12.906Z,23.29
2023-05-13T16:12:41.188Z,23.10
2023-05-13T16:15:10.894Z,22.86
2023-05-13T16:17:39.196Z,22.59
2023-05-13T16:20:10.165Z,22.34
2023-05-13T16:22:39.722Z,22.14
2023-05-13T16:25:10.259Z,21.92
2023-05-13T16:27:40.080Z,21.65
2023-05-13T16:30:10.637Z,21.41
2023-05-13T16:32:39.312Z,21.12
2023-05-13T16:35:08.420Z,20.87
2023-05-13T16:37:36.622Z,20.67
2023-05-13T16:40:06.043Z,20.43
2023-05-13T16:42:34.272Z,20.24
2023-05-13T16:45:02.696Z,20.04
2023-05-13T16:47:30.893Z,19.83
2023-05-13T16:49:59.733Z,19.71
2023-05-13T16:52:28.221Z,19.68
2023-05-13T16:54:58.462Z,19.66
2023-05-13T16:57:27.864Z,19.60
2023-05-13T16:59:56.389Z,19.53
2023-05-13T17:02:25.283Z,19.44
2023-05-13T17:04:54.251Z,19.33
2023-05-13T17:07:23.024Z,19.22
2023-05-13T17:09:51.321Z,19.08
2023-05-13T17:12:19.598Z,18.95
2023-05-13T17:14:47.780Z,18.89
2023-05-13T17:17:16.418Z,18.81
2023-05-13T17:19:44.857Z,18.76
2023-05-13T17:22:13.036Z,18.70
2023-05-13T17:24:41.834Z,18.62
2023-05-13T17:27:11.319Z,18.53
2023-05-13T17:29:40.644Z,18.38
2023-05-13T17:32:08.816Z,18.21
2023-05-13T17:34:37.104Z,18.07
2023-05-13T17:37:06.212Z,17.97
2023-05-13T17:39:34.491Z,17.91
2023-05-13T17:42:02.868Z,17.85
2023-05-13T17:44:31.125Z,17.79
2023-05-13T17:46:59.442Z,17.69
2023-05-13T17:49:28.034Z,17.62
2023-05-13T17:51:56.157Z,17.56
2023-05-13T17:54:24.284Z,17.48
2023-05-13T17:56:52.460Z,17.37
2023-05-13T17:59:20.863Z,17.28
2023-05-13T18:01:49.238Z,17.20
2023-05-13T18:04:17.626Z,17.04
2023-05-13T18:06:45.955Z,16.88
2023-05-13T18:09:14.102Z,16.79
2023-05-13T18:11:42.352Z,16.74
2023-05-13T18:14:10.439Z,16.71
2023-05-13T18:16:38.788Z,16.69
2023-05-13T18:19:07.296Z,16.62
2023-05-13T18:21:35.597Z,16.54
2023-05-13T18:24:04.125Z,16.48
2023-05-13T18:26:32.563Z,16.43
2023-05-13T18:29:01.284Z,16.38
2023-05-13T18:31:29.549Z,16.34
2023-05-13T18:33:58.089Z,16.31
2023-05-13T18:36:29.064Z,16.28
2023-05-13T18:38:57.180Z,16.22
2023-05-13T18:41:25.996Z,16.08
2023-05-13T18:43:54.236Z,15.89
2023-05-13T18:46:23.268Z,15.77
2023-05-13T18:48:51.805Z,15.73
2023-05-13T18:51:21.067Z,15.72
2023-05-13T18:53:49.190Z,15.68
2023-05-13T18:56:17.680Z,15.62
2023-05-13T18:58:46.924Z,15.59
2023-05-13T19:01:18.376Z,15.59
2023-05-13T19:03:47.148Z,15.59
2023-05-13T19:06:15.923Z,15.58
2023-05-13T19:08:44.102Z,15.49
2023-05-13T19:11:12.294Z,15.42
2023-05-13T19:13:47.381Z,15.36
2023-05-13T19:16:16.590Z,15.33
2023-05-13T19:18:44.776Z,15.30
2023-05-13T19:21:13.085Z,15.22
2023-05-13T19:23:41.673Z,15.13
2023-05-13T19:26:11.088Z,15.08
2023-05-13T19:28:39.899Z,15.03
2023-05-13T19:31:08.428Z,15.00
2023-05-13T19:33:39.724Z,14.99
2023-05-13T19:36:09.375Z,14.97
2023-05-13T19:38:37.722Z,14.95
2023-05-13T19:41:06.118Z,14.94
2023-05-13T19:43:34.585Z,14.87
2023-05-13T19:46:03.032Z,14.78
2023-05-13T19:48:31.592Z,14.74
2023-05-13T19:50:59.751Z,14.68
2023-05-13T19:53:28.129Z,14.63
2023-05-13T19:55:56.814Z,14.59
2023-05-13T19:58:24.998Z,14.55
2023-05-13T20:00:54.467Z,14.51
2023-05-13T20:03:23.147Z,14.46
2023-05-13T20:05:54.056Z,14.40
2023-05-13T20:08:23.136Z,14.27
2023-05-13T20:10:54.290Z,14.14
2023-05-13T20:13:22.676Z,14.03
2023-05-13T20:15:51.907Z,13.96
2023-05-13T20:18:21.185Z,13.87
2023-05-13T20:20:49.360Z,13.78
2023-05-13T20:23:17.539Z,13.71
2023-05-13T20:25:47.215Z,13.66
2023-05-13T20:28:15.997Z,13.61
2023-05-13T20:30:44.336Z,13.53
2023-05-13T20:33:12.924Z,13.44
2023-05-13T20:35:41.305Z,13.36
2023-05-13T20:38:09.890Z,13.29
2023-05-13T20:40:38.188Z,13.23
2023-05-13T20:43:07.800Z,13.18
2023-05-13T20:45:39.885Z,13.12
2023-05-13T20:48:09.489Z,13.05
2023-05-13T20:50:37.858Z,12.98
2023-05-13T20:53:06.117Z,12.90
2023-05-13T20:55:34.223Z,12.85
2023-05-13T20:58:02.395Z,12.80
2023-05-13T21:00:30.885Z,12.76
2023-05-13T21:02:59.866Z,12.69
2023-05-13T21:05:28.475Z,12.62
2023-05-13T21:07:57.373Z,12.57
2023-05-13T21:10:25.803Z,12.50
2023-05-13T21:12:54.456Z,12.45
2023-05-13T21:15:22.746Z,12.42
2023-05-13T21:17:50.959Z,12.40
2023-05-13T21:20:19.310Z,12.32
2023-05-13T21:22:47.395Z,12.22
2023-05-13T21:25:16.358Z,12.18
2023-05-13T21:27:45.275Z,12.14
2023-05-13T21:30:14.007Z,12.10
2023-05-13T21:32:42.361Z,12.08
2023-05-13T21:35:10.574Z,12.04
2023-05-13T21:37:39.002Z,12.02
2023-05-13T21:40:08.612Z,12.02
2023-05-13T21:42:36.916Z,12.00
2023-05-13T21:45:05.899Z,11.97
2023-05-13T21:47:34.316Z,11.92
2023-05-13T21:50:03.046Z,11.88
2023-05-13T21:52:31.355Z,11.79
2023-05-13T21:54:59.741Z,11.70
2023-05-13T21:57:28.678Z,11.64
2023-05-13T21:59:56.916Z,11.58
2023-05-13T22:02:25.254Z,11.51
2023-05-13T22:04:53.736Z,11.47
2023-05-13T22:07:22.180Z,11.45
2023-05-13T22:09:50.660Z,11.40
2023-05-13T22:12:19.139Z,11.36
2023-05-13T22:14:47.328Z,11.34
2023-05-13T22:17:15.473Z,11.31
2023-05-13T22:19:43.846Z,11.21
2023-05-13T22:22:12.284Z,11.12
2023-05-13T22:24:40.765Z,11.07
2023-05-13T22:27:09.511Z,11.03
2023-05-13T22:29:37.939Z,11.02
2023-05-13T22:32:06.855Z,10.96
2023-05-13T22:34:35.013Z,10.89
2023-05-13T22:37:04.317Z,10.83
2023-05-13T22:39:32.622Z,10.77
2023-05-13T22:42:00.990Z,10.74
2023-05-13T22:44:29.481Z,10.70
2023-05-13T22:46:57.658Z,10.67
2023-05-13T22:49:26.049Z,10.66
2023-05-13T22:51:54.332Z,10.64
2023-05-13T22:54:22.501Z,10.62
2023-05-13T22:56:50.794Z,10.60
2023-05-13T22:59:19.103Z,10.57
2023-05-13T23:01:47.289Z,10.52
2023-05-13T23:04:15.788Z,10.49
2023-05-13T23:06:47.020Z,10.48
2023-05-13T23:09:15.369Z,10.47
2023-05-13T23:11:43.656Z,10.44
2023-05-13T23:14:12.046Z,10.42
2023-05-13T23:16:40.585Z,10.37
2023-05-13T23:19:09.122Z,10.28
2023-05-13T23:21:37.494Z,10.21
2023-05-13T23:24:06.375Z,10.16
2023-05-13T23:26:34.874Z,10.10
2023-05-13T23:29:03.949Z,10.05
2023-05-13T23:31:32.585Z,9.97
2023-05-13T23:34:00.859Z,9.94
2023-05-13T23:36:29.126Z,9.92
2023-05-13T23:38:57.515Z,9.88
2023-05-13T23:41:26.004Z,9.84
2023-05-13T23:43:54.395Z,9.81
2023-05-13T23:46:23.552Z,9.75
2023-05-13T23:48:55.244Z,9.72
2023-05-13T23:51:23.742Z,9.68
2023-05-13T23:53:54.576Z,9.63
2023-05-13T23:56:22.714Z,9.59
2023-05-13T23:58:50.879Z,9.54
